createdAt,value
2023-11-05T00:00:12.195Z,2.23
2023-11-05T00:02:40.829Z,3.37
2023-11-05T00:05:10.663Z,3.03
2023-11-05T00:07:39.488Z,1.43
2023-11-05T00:10:07.745Z,6.80
2023-11-05T00:12:36.321Z,3.67
2023-11-05T00:15:05.222Z,1.87
2023-11-05T00:17:35.365Z,1.30
2023-11-05T00:20:08.348Z,1.23
2023-11-05T00:22:37.370Z,1.00
2023-11-05T00:25:06.117Z,3.33
2023-11-05T00:27:35.400Z,3.70
2023-11-05T00:30:03.991Z,2.40
2023-11-05T00:32:32.846Z,2.07
2023-11-05T00:35:01.192Z,1.27
2023-11-05T00:37:29.968Z,2.40
2023-11-05T00:39:59.539Z,2.20
2023-11-05T00:42:28.847Z,2.47
2023-11-05T00:44:57.642Z,4.53
2023-11-05T00:47:26.458Z,1.87
2023-11-05T00:49:54.835Z,1.30
2023-11-05T00:52:23.631Z,0.80
2023-11-05T00:54:51.494Z,1.87
2023-11-05T00:57:19.623Z,1.73
2023-11-05T00:59:48.383Z,1.67
2023-11-05T01:02:17.731Z,3.53
2023-11-05T01:04:46.265Z,2.00
2023-11-05T01:07:15.355Z,4.70
2023-11-05T01:09:44.410Z,1.50
2023-11-05T01:12:13.302Z,1.87
2023-11-05T01:14:42.290Z,3.00
2023-11-05T01:17:12.099Z,4.63
2023-11-05T01:19:44.056Z,2.87
2023-11-05T01:22:12.898Z,5.03
2023-11-05T01:24:41.954Z,6.53
2023-11-05T01:27:10.336Z,5.73
2023-11-05T01:29:39.019Z,5.47
2023-11-05T01:32:08.959Z,6.40
2023-11-05T01:34:37.737Z,5.70
2023-11-05T01:37:06.738Z,5.30
2023-11-05T01:39:34.982Z,6.07
2023-11-05T01:42:03.369Z,6.43
2023-11-05T01:44:31.851Z,6.33
2023-11-05T01:47:00.186Z,6.70
2023-11-05T01:49:28.632Z,7.20
2023-11-05T01:51:57.608Z,7.47
2023-11-05T01:54:26.184Z,7.77
2023-11-05T01:56:55.009Z,6.03
2023-11-05T01:59:23.141Z,4.93
2023-11-05T02:01:51.929Z,5.90
2023-11-05T02:04:20.944Z,8.17
2023-11-05T02:06:49.196Z,7.07
2023-11-05T02:09:17.900Z,7.00
2023-11-05T02:11:47.187Z,7.43
2023-11-05T02:14:15.668Z,5.50
2023-11-05T02:16:44.450Z,8.17
2023-11-05T02:19:13.500Z,5.97
2023-11-05T02:21:43.894Z,9.47
2023-11-05T02:24:12.980Z,8.97
2023-11-05T02:26:41.996Z,13.40
2023-11-05T02:29:10.869Z,11.33
2023-11-05T02:31:39.710Z,14.10
2023-11-05T02:34:08.635Z,11.47
2023-11-05T02:36:37.346Z,9.47
2023-11-05T02:39:05.987Z,8.53
2023-11-05T02:41:36.131Z,7.63
2023-11-05T02:44:04.825Z,9.90
2023-11-05T02:46:32.978Z,10.03
2023-11-05T02:49:01.458Z,5.43
2023-11-05T02:51:30.478Z,5.23
2023-11-05T02:53:59.044Z,3.23
2023-11-05T02:56:27.032Z,8.30
2023-11-05T02:58:55.200Z,7.93
2023-11-05T03:01:24.627Z,10.57
2023-11-05T03:03:55.687Z,10.73
2023-11-05T03:06:25.022Z,7.83
2023-11-05T03:08:53.203Z,10.80
2023-11-05T03:11:22.007Z,8.90
2023-11-05T03:13:50.798Z,6.77
2023-11-05T03:16:19.328Z,10.70
2023-11-05T03:18:48.684Z,8.60
2023-11-05T03:21:17.476Z,8.70
2023-11-05T03:23:45.642Z,9.40
2023-11-05T03:26:14.834Z,8.60
2023-11-05T03:28:43.871Z,6.37
2023-11-05T03:31:13.468Z,8.97
2023-11-05T03:33:41.646Z,6.03
2023-11-05T03:36:10.221Z,5.47
2023-11-05T03:38:38.797Z,6.23
2023-11-05T03:41:09.129Z,6.70
2023-11-05T03:43:37.916Z,3.33
2023-11-05T03:46:06.695Z,3.10
2023-11-05T03:48:34.830Z,4.50
2023-11-05T03:51:03.439Z,6.67
2023-11-05T03:53:32.137Z,5.43
2023-11-05T03:56:00.427Z,8.20
2023-11-05T03:58:29.143Z,3.67
2023-11-05T04:00:58.274Z,5.40
2023-11-05T04:03:27.099Z,4.67
2023-11-05T04:05:57.600Z,4.23
2023-11-05T04:08:26.176Z,3.90
2023-11-05T04:10:55.055Z,3.47
2023-11-05T04:13:23.947Z,3.30
2023-11-05T04:15:52.241Z,2.87
2023-11-05T04:18:21.062Z,3.93
2023-11-05T04:20:49.168Z,3.60
2023-11-05T04:23:17.513Z,5.10
2023-11-05T04:25:45.654Z,5.27
2023-11-05T04:28:14.585Z,6.37
2023-11-05T04:30:42.744Z,6.40
2023-11-05T04:33:11.072Z,5.93
2023-11-05T04:35:39.824Z,5.33
2023-11-05T04:38:08.578Z,5.53
2023-11-05T04:40:37.308Z,3.83
2023-11-05T04:43:05.567Z,4.90
2023-11-05T04:45:35.894Z,4.17
2023-11-05T04:48:04.556Z,5.30
2023-11-05T04:50:32.700Z,4.27
2023-11-05T04:53:01.300Z,4.50
2023-11-05T04:55:32.634Z,4.57
2023-11-05T04:58:01.254Z,4.87
2023-11-05T05:00:30.961Z,4.80
2023-11-05T05:05:26.957Z,4.55
2023-11-05T05:07:57.623Z,7.40
2023-11-05T05:10:26.295Z,8.10
2023-11-05T05:12:55.116Z,6.47
2023-11-05T05:15:23.497Z,5.57
2023-11-05T05:17:52.337Z,4.43
2023-11-05T05:20:21.366Z,4.57
2023-11-05T05:22:50.114Z,5.67
2023-11-05T05:25:19.050Z,5.13
2023-11-05T05:27:48.059Z,5.90
2023-11-05T05:30:17.972Z,6.37
2023-11-05T05:32:46.925Z,11.47
2023-11-05T05:35:15.947Z,8.53
2023-11-05T05:37:44.465Z,7.03
2023-11-05T05:40:13.438Z,6.87
2023-11-05T05:42:41.885Z,6.80
2023-11-05T05:45:10.492Z,7.10
2023-11-05T05:47:38.816Z,7.03
2023-11-05T05:50:09.125Z,7.60
2023-11-05T05:52:38.441Z,9.60
2023-11-05T05:55:08.511Z,8.23
2023-11-05T05:57:36.970Z,7.20
2023-11-05T06:00:07.424Z,6.50
2023-11-05T06:02:37.158Z,10.27
2023-11-05T06:05:07.502Z,11.07
2023-11-05T06:07:37.300Z,14.07
2023-11-05T06:10:07.808Z,14.40
2023-11-05T06:12:36.488Z,14.90
2023-11-05T06:15:11.437Z,11.37
2023-11-05T06:17:36.336Z,10.53
2023-11-05T06:20:07.083Z,12.60
2023-11-05T06:22:38.086Z,8.90
2023-11-05T06:25:06.952Z,10.93
2023-11-05T06:27:35.673Z,7.27
2023-11-05T06:30:05.791Z,12.90
2023-11-05T06:32:37.466Z,12.30
2023-11-05T06:35:06.450Z,6.57
2023-11-05T06:37:35.565Z,5.10
2023-11-05T06:40:05.442Z,4.97
2023-11-05T06:42:34.543Z,6.63
2023-11-05T06:47:31.300Z,5.30
2023-11-05T06:50:00.232Z,5.37
2023-11-05T06:52:29.988Z,5.47
2023-11-05T06:54:58.794Z,4.30
2023-11-05T06:57:27.587Z,4.20
2023-11-05T06:59:56.373Z,2.07
2023-11-05T07:02:25.305Z,2.60
2023-11-05T07:04:53.965Z,5.33
2023-11-05T07:07:23.691Z,5.20
2023-11-05T07:09:52.658Z,3.77
2023-11-05T07:12:21.552Z,6.03
2023-11-05T07:14:49.821Z,4.67
2023-11-05T07:17:17.801Z,5.27
2023-11-05T07:19:46.499Z,4.87
2023-11-05T07:22:15.964Z,6.83
2023-11-05T07:24:45.588Z,4.43
2023-11-05T07:27:14.273Z,4.10
2023-11-05T07:29:44.714Z,2.30
2023-11-05T07:32:13.899Z,6.23
2023-11-05T07:39:38.323Z,4.62
2023-11-05T07:42:06.879Z,2.53
2023-11-05T07:44:35.122Z,3.33
2023-11-05T07:47:04.999Z,3.17
2023-11-05T07:49:33.172Z,3.83
2023-11-05T07:52:01.141Z,3.47
2023-11-05T07:54:29.845Z,5.83
2023-11-05T07:56:58.615Z,5.73
2023-11-05T07:59:27.197Z,4.73
2023-11-05T08:01:55.894Z,2.50
2023-11-05T08:04:24.513Z,6.33
2023-11-05T08:06:55.743Z,2.73
2023-11-05T08:09:23.599Z,2.70
2023-11-05T08:11:52.073Z,2.63
2023-11-05T08:14:20.686Z,2.70
2023-11-05T08:16:51.137Z,2.73
2023-11-05T08:19:19.995Z,4.70
2023-11-05T08:21:48.558Z,2.43
2023-11-05T08:24:17.462Z,2.57
2023-11-05T08:26:48.972Z,2.83
2023-11-05T08:29:17.637Z,3.83
2023-11-05T08:31:47.175Z,2.60
2023-11-05T08:34:15.285Z,3.37
2023-11-05T08:36:43.855Z,4.47
2023-11-05T08:39:12.504Z,2.00
2023-11-05T08:41:42.430Z,3.00
2023-11-05T08:44:10.417Z,1.93
2023-11-05T08:46:38.399Z,1.53
2023-11-05T08:49:07.063Z,2.87
2023-11-05T08:51:35.655Z,1.77
2023-11-05T08:54:04.321Z,1.27
2023-11-05T08:56:32.793Z,2.07
2023-11-05T08:59:01.429Z,1.90
2023-11-05T09:01:30.666Z,1.40
2023-11-05T09:03:59.090Z,5.03
2023-11-05T09:06:27.192Z,3.17
2023-11-05T09:08:55.751Z,2.70
2023-11-05T09:11:24.185Z,4.87
2023-11-05T09:13:52.238Z,4.30
2023-11-05T09:16:20.794Z,2.50
2023-11-05T09:18:48.681Z,4.07
2023-11-05T09:21:18.044Z,3.87
2023-11-05T09:23:47.467Z,3.70
2023-11-05T09:26:15.896Z,2.63
2023-11-05T09:28:44.655Z,4.40
2023-11-05T09:31:14.743Z,2.37
2023-11-05T09:33:43.321Z,1.73
2023-11-05T09:36:12.098Z,2.40
2023-11-05T09:38:42.831Z,5.43
2023-11-05T09:41:11.307Z,2.83
2023-11-05T09:43:39.858Z,2.23
2023-11-05T09:46:08.589Z,1.77
2023-11-05T09:48:37.227Z,1.60
2023-11-05T09:51:06.062Z,2.33
2023-11-05T09:53:34.543Z,2.30
2023-11-05T09:56:03.173Z,2.00
2023-11-05T09:58:31.751Z,2.60
2023-11-05T10:00:59.667Z,2.00
2023-11-05T10:03:27.957Z,1.37
2023-11-05T10:05:57.574Z,2.07
2023-11-05T10:08:26.042Z,2.20
2023-11-05T10:10:57.311Z,2.57
2023-11-05T10:13:29.779Z,3.87
2023-11-05T10:16:05.304Z,4.00
2023-11-05T10:21:01.358Z,1.75
2023-11-05T10:23:30.143Z,1.23
2023-11-05T10:25:58.769Z,0.90
2023-11-05T10:28:29.080Z,1.33
2023-11-05T10:31:00.685Z,1.33
2023-11-05T10:33:30.278Z,2.30
2023-11-05T10:35:58.832Z,1.60
2023-11-05T10:38:28.926Z,2.20
2023-11-05T10:40:58.269Z,2.60
2023-11-05T10:43:27.491Z,2.37
2023-11-05T10:48:23.242Z,0.90
2023-11-05T10:50:52.525Z,1.43
2023-11-05T10:55:50.165Z,1.20
2023-11-05T10:58:24.362Z,2.57
2023-11-05T11:00:52.178Z,1.43
2023-11-05T11:03:22.749Z,0.80
2023-11-05T11:05:52.707Z,2.23
2023-11-05T11:08:25.945Z,1.93
2023-11-05T11:10:56.084Z,4.63
2023-11-05T11:13:35.278Z,2.77
2023-11-05T11:16:04.836Z,1.23
2023-11-05T11:18:34.360Z,1.73
2023-11-05T11:21:04.564Z,1.20
2023-11-05T11:23:33.227Z,1.67
2023-11-05T11:26:03.353Z,1.53
2023-11-05T11:28:32.454Z,1.40
2023-11-05T11:33:31.624Z,1.30
2023-11-05T11:35:59.737Z,1.40
2023-11-05T11:38:27.866Z,1.60
2023-11-05T11:40:56.630Z,1.20
2023-11-05T11:43:25.907Z,1.60
2023-11-05T11:45:54.579Z,1.33
2023-11-05T11:48:29.230Z,1.93
2023-11-05T11:51:00.189Z,2.50
2023-11-05T11:53:30.192Z,2.43
2023-11-05T11:55:59.418Z,3.63
2023-11-05T11:58:29.749Z,2.77
2023-11-05T12:01:08.612Z,1.93
2023-11-05T12:03:37.368Z,1.20
2023-11-05T12:06:05.767Z,2.50
2023-11-05T12:08:41.023Z,3.30
2023-11-05T12:11:10.934Z,1.67
2023-11-05T12:13:44.901Z,1.87
2023-11-05T12:16:13.589Z,3.87
2023-11-05T12:18:43.547Z,2.60
2023-11-05T12:21:12.552Z,5.00
2023-11-05T12:23:42.404Z,3.33
2023-11-05T12:26:12.038Z,2.53
2023-11-05T12:28:41.531Z,3.70
2023-11-05T12:31:10.330Z,2.13
2023-11-05T12:33:40.974Z,1.27
2023-11-05T12:36:11.236Z,1.50
2023-11-05T12:38:39.898Z,1.53
2023-11-05T12:41:09.313Z,1.47
2023-11-05T12:43:37.910Z,1.43
2023-11-05T12:46:06.794Z,1.43
2023-11-05T12:48:35.549Z,2.40
2023-11-05T12:51:04.193Z,4.07
2023-11-05T12:53:34.057Z,1.63
2023-11-05T12:56:07.174Z,2.77
2023-11-05T12:58:36.750Z,3.13
2023-11-05T13:01:06.726Z,2.13
2023-11-05T13:03:37.031Z,0.80
2023-11-05T13:06:09.215Z,0.93
2023-11-05T13:08:38.636Z,1.27
2023-11-05T13:11:09.163Z,2.37
2023-11-05T13:13:37.739Z,1.87
2023-11-05T13:16:07.094Z,1.93
2023-11-05T13:18:35.756Z,0.70
2023-11-05T13:21:05.756Z,0.60
2023-11-05T13:23:34.277Z,6.50
2023-11-05T13:26:03.000Z,1.47
2023-11-05T13:28:32.597Z,1.13
2023-11-05T13:31:02.854Z,1.73
2023-11-05T13:33:31.975Z,2.30
2023-11-05T13:36:00.776Z,1.20
2023-11-05T13:38:29.254Z,2.63
2023-11-05T13:40:58.158Z,3.47
2023-11-05T13:43:26.132Z,2.40
2023-11-05T13:45:55.701Z,1.80
2023-11-05T13:48:24.144Z,1.53
2023-11-05T13:50:53.404Z,1.00
2023-11-05T13:53:21.797Z,1.27
2023-11-05T13:55:50.477Z,3.00
2023-11-05T13:58:20.681Z,2.30
2023-11-05T14:00:49.143Z,0.97
2023-11-05T14:03:19.196Z,1.20
2023-11-05T14:05:47.828Z,1.90
2023-11-05T14:08:17.492Z,2.57
2023-11-05T14:10:47.944Z,2.70
2023-11-05T14:13:16.631Z,3.03
2023-11-05T14:15:44.945Z,1.50
2023-11-05T14:18:13.479Z,3.20
2023-11-05T14:20:42.245Z,1.87
2023-11-05T14:23:12.245Z,2.60
2023-11-05T14:25:41.497Z,2.43
2023-11-05T14:28:09.964Z,2.27
2023-11-05T14:30:38.509Z,3.43
2023-11-05T14:33:07.254Z,2.17
2023-11-05T14:35:35.595Z,2.77
2023-11-05T14:38:04.399Z,1.97
2023-11-05T14:40:32.966Z,3.27
2023-11-05T14:43:02.972Z,4.20
2023-11-05T14:45:34.078Z,6.00
2023-11-05T14:48:02.669Z,4.77
2023-11-05T14:50:32.019Z,5.70
2023-11-05T14:53:04.435Z,1.40
2023-11-05T14:55:32.391Z,3.20
2023-11-05T14:58:03.799Z,3.87
2023-11-05T15:00:33.399Z,2.03
2023-11-05T15:03:03.564Z,2.80
2023-11-05T15:05:32.504Z,3.17
2023-11-05T15:08:01.451Z,2.27
2023-11-05T15:10:30.355Z,2.47
2023-11-05T15:12:59.107Z,2.70
2023-11-05T15:15:27.346Z,2.73
2023-11-05T15:17:55.730Z,2.70
2023-11-05T15:20:24.539Z,2.77
2023-11-05T15:22:53.284Z,1.97
2023-11-05T15:25:23.172Z,3.87
2023-11-05T15:27:52.898Z,3.60
2023-11-05T15:30:23.381Z,2.77
2023-11-05T15:32:53.124Z,1.13
2023-11-05T15:35:22.891Z,2.27
2023-11-05T15:37:51.552Z,3.67
2023-11-05T15:40:21.295Z,4.17
2023-11-05T15:42:51.909Z,6.03
2023-11-05T15:45:21.748Z,4.27
2023-11-05T15:47:50.510Z,1.37
2023-11-05T15:50:23.866Z,1.20
2023-11-05T15:52:52.756Z,3.13
2023-11-05T15:55:23.577Z,4.03
2023-11-05T15:57:51.496Z,6.17
2023-11-05T16:00:22.268Z,3.20
2023-11-05T16:02:50.811Z,2.73
2023-11-05T16:05:19.344Z,5.20
2023-11-05T16:07:47.953Z,5.93
2023-11-05T16:10:16.920Z,2.47
2023-11-05T16:12:44.932Z,2.70
2023-11-05T16:15:14.576Z,2.53
2023-11-05T16:17:43.793Z,2.97
2023-11-05T16:20:12.780Z,2.60
2023-11-05T16:22:41.531Z,1.97
2023-11-05T16:25:10.015Z,2.97
2023-11-05T16:27:39.390Z,1.50
2023-11-05T16:30:09.357Z,3.60
2023-11-05T16:32:38.708Z,2.03
2023-11-05T16:35:07.629Z,1.73
2023-11-05T16:37:36.807Z,1.57
2023-11-05T16:40:05.784Z,2.90
2023-11-05T16:42:34.223Z,3.20
2023-11-05T16:45:02.407Z,3.57
2023-11-05T16:47:30.783Z,1.63
2023-11-05T16:49:59.270Z,1.30
2023-11-05T16:52:28.335Z,2.13
2023-11-05T16:54:57.779Z,2.90
2023-11-05T16:57:26.545Z,6.07
2023-11-05T16:59:55.353Z,4.67
2023-11-05T17:02:24.026Z,6.33
2023-11-05T17:04:52.640Z,3.27
2023-11-05T17:07:20.791Z,2.60
2023-11-05T17:09:49.362Z,2.60
2023-11-05T17:12:18.062Z,4.07
2023-11-05T17:14:46.422Z,5.70
2023-11-05T17:17:15.045Z,4.77
2023-11-05T17:19:43.812Z,11.50
2023-11-05T17:22:11.887Z,3.23
2023-11-05T17:24:40.462Z,3.00
2023-11-05T17:27:09.037Z,1.80
2023-11-05T17:29:37.418Z,1.60
2023-11-05T17:32:08.411Z,2.67
2023-11-05T17:34:36.894Z,3.73
2023-11-05T17:37:05.519Z,3.00
2023-11-05T17:39:34.017Z,2.33
2023-11-05T17:42:02.609Z,3.23
2023-11-05T17:44:31.382Z,2.33
2023-11-05T17:47:00.245Z,2.20
2023-11-05T17:49:28.294Z,3.43
2023-11-05T17:51:57.546Z,3.07
2023-11-05T17:54:26.554Z,3.27
2023-11-05T17:56:55.218Z,1.40
2023-11-05T17:59:25.564Z,1.97
2023-11-05T18:01:54.193Z,2.93
2023-11-05T18:04:24.416Z,1.53
2023-11-05T18:06:54.563Z,1.93
2023-11-05T18:09:22.954Z,6.00
2023-11-05T18:11:53.278Z,4.10
2023-11-05T18:14:22.085Z,4.83
2023-11-05T18:16:51.206Z,3.57
2023-11-05T18:19:19.739Z,2.13
2023-11-05T18:21:49.087Z,7.40
2023-11-05T18:24:17.225Z,10.87
2023-11-05T18:26:45.942Z,2.60
2023-11-05T18:29:14.558Z,3.63
2023-11-05T18:31:43.355Z,2.87
2023-11-05T18:34:11.886Z,2.07
2023-11-05T18:36:40.468Z,3.63
2023-11-05T18:39:10.336Z,5.50
2023-11-05T18:41:45.209Z,3.43
2023-11-05T18:44:13.805Z,3.63
2023-11-05T18:46:42.125Z,2.47
2023-11-05T18:49:10.926Z,6.33
2023-11-05T18:51:38.964Z,4.30
2023-11-05T18:54:07.747Z,2.93
2023-11-05T18:56:36.287Z,4.70
2023-11-05T18:59:05.640Z,4.40
2023-11-05T19:01:34.150Z,4.63
2023-11-05T19:04:02.291Z,3.00
2023-11-05T19:06:31.111Z,3.33
2023-11-05T19:08:59.519Z,3.63
2023-11-05T19:11:28.208Z,4.20
2023-11-05T19:14:06.749Z,6.33
2023-11-05T19:16:27.010Z,2.83
2023-11-05T19:18:56.054Z,3.07
2023-11-05T19:21:25.810Z,5.60
2023-11-05T19:23:54.503Z,5.67
2023-11-05T19:26:24.843Z,6.30
2023-11-05T19:28:53.206Z,4.23
2023-11-05T19:31:22.194Z,1.83
2023-11-05T19:33:50.963Z,2.50
2023-11-05T19:36:20.596Z,4.40
2023-11-05T19:38:49.988Z,2.30
2023-11-05T19:41:21.084Z,3.40
2023-11-05T19:43:49.852Z,7.30
2023-11-05T19:46:19.477Z,4.50
2023-11-05T19:48:48.498Z,3.97
2023-11-05T19:56:25.782Z,6.83
2023-11-05T19:58:50.703Z,4.20
2023-11-05T20:01:20.670Z,2.60
2023-11-05T20:03:49.492Z,2.77
2023-11-05T20:06:20.002Z,3.07
2023-11-05T20:08:49.496Z,3.97
2023-11-05T20:11:18.888Z,4.23
2023-11-05T20:13:48.425Z,5.63
2023-11-05T20:16:17.293Z,4.63
2023-11-05T20:18:47.440Z,2.27
2023-11-05T20:21:16.614Z,2.53
2023-11-05T20:23:46.002Z,3.53
2023-11-05T20:26:14.971Z,2.00
2023-11-05T20:31:14.842Z,3.77
2023-11-05T20:33:43.655Z,3.67
2023-11-05T20:36:12.119Z,2.80
2023-11-05T20:38:42.235Z,3.63
2023-11-05T20:41:11.277Z,3.67
2023-11-05T20:46:07.471Z,2.85
2023-11-05T20:48:36.201Z,4.03
2023-11-05T20:51:06.283Z,2.77
2023-11-05T20:53:35.176Z,6.17
2023-11-05T20:56:03.817Z,2.57
2023-11-05T20:58:32.099Z,5.87
2023-11-05T21:01:01.023Z,5.47
2023-11-05T21:03:29.880Z,3.23
2023-11-05T21:05:58.190Z,4.40
2023-11-05T21:08:26.755Z,3.43
2023-11-05T21:10:58.286Z,2.40
2023-11-05T21:13:25.926Z,3.27
2023-11-05T21:15:54.812Z,3.97
2023-11-05T21:18:22.995Z,5.63
2023-11-05T21:20:51.849Z,5.30
2023-11-05T21:23:20.011Z,4.13
2023-11-05T21:25:48.275Z,4.47
2023-11-05T21:28:16.924Z,2.33
2023-11-05T21:30:45.814Z,3.50
2023-11-05T21:33:16.503Z,2.97
2023-11-05T21:35:45.185Z,3.50
2023-11-05T21:38:13.706Z,4.00
2023-11-05T21:40:42.289Z,2.93
2023-11-05T21:43:10.936Z,5.33
2023-11-05T21:45:39.502Z,5.87
2023-11-05T21:48:08.548Z,4.33
2023-11-05T21:50:39.064Z,4.37
2023-11-05T21:53:08.069Z,6.27
2023-11-05T21:58:03.675Z,4.37
2023-11-05T22:00:32.365Z,6.17
2023-11-05T22:03:01.145Z,3.83
2023-11-05T22:05:30.195Z,2.40
2023-11-05T22:07:59.080Z,5.83
2023-11-05T22:10:28.136Z,4.93
2023-11-05T22:12:56.821Z,5.10
2023-11-05T22:15:25.611Z,5.80
2023-11-05T22:17:53.982Z,7.13
2023-11-05T22:20:23.343Z,3.77
2023-11-05T22:25:19.431Z,3.58
2023-11-05T22:27:48.231Z,6.17
2023-11-05T22:30:17.007Z,6.23
2023-11-05T22:32:45.820Z,5.57
2023-11-05T22:35:14.898Z,4.93
2023-11-05T22:37:43.900Z,4.40
2023-11-05T22:40:15.994Z,7.33
2023-11-05T22:42:44.721Z,6.07
2023-11-05T22:45:13.323Z,5.37
2023-11-05T22:47:44.115Z,5.83
2023-11-05T22:50:12.163Z,5.60
2023-11-05T22:52:42.669Z,6.90
2023-11-05T22:55:11.649Z,6.90
2023-11-05T22:57:40.225Z,4.80
2023-11-05T23:00:10.519Z,4.87
2023-11-05T23:02:39.172Z,4.13
2023-11-05T23:05:07.459Z,5.80
2023-11-05T23:07:37.952Z,9.40
2023-11-05T23:10:06.642Z,7.77
2023-11-05T23:12:35.214Z,3.27
2023-11-05T23:15:03.983Z,7.10
2023-11-05T23:17:33.054Z,9.77
2023-11-05T23:20:01.792Z,6.67
2023-11-05T23:22:30.358Z,6.03
2023-11-05T23:24:58.934Z,3.93
2023-11-05T23:27:27.750Z,5.23
2023-11-05T23:29:56.450Z,5.33
2023-11-05T23:32:25.822Z,6.67
2023-11-05T23:34:54.651Z,6.10
2023-11-05T23:37:22.598Z,3.67
2023-11-05T23:39:51.386Z,5.13
2023-11-05T23:42:20.099Z,4.07
2023-11-05T23:44:48.574Z,6.10
2023-11-05T23:47:17.621Z,4.57
2023-11-05T23:49:46.045Z,7.87
2023-11-05T23:52:15.017Z,2.80
2023-11-05T23:54:43.723Z,4.53
2023-11-05T23:57:12.501Z,4.70
2023-11-05T23:59:40.680Z,4.13
